sensor_id;sensor_type;location;lat;lon;timestamp;P1;durP1;ratioP1;P2;durP2;ratioP2
31660;SDS011;18267;52.234;7.444;2022-09-27T00:02:15;5.57;;;2.17;;
31660;SDS011;18267;52.234;7.444;2022-09-27T00:04:41;9.95;;;2.38;;
31660;SDS011;18267;52.234;7.444;2022-09-27T00:07:06;8.77;;;2.17;;
31660;SDS011;18267;52.234;7.444;2022-09-27T00:09:32;8.10;;;2.20;;
31660;SDS011;18267;52.234;7.444;2022-09-27T00:11:58;3.13;;;1.83;;
31660;SDS011;18267;52.234;7.444;2022-09-27T00:14:24;3.42;;;1.75;;
31660;SDS011;18267;52.234;7.444;2022-09-27T00:16:49;12.75;;;1.95;;
31660;SDS011;18267;52.234;7.444;2022-09-27T00:19:16;7.68;;;1.75;;
31660;SDS011;18267;52.234;7.444;2022-09-27T00:21:44;9.38;;;2.22;;
31660;SDS011;18267;52.234;7.444;2022-09-27T00:24:13;8.60;;;1.77;;
31660;SDS011;18267;52.234;7.444;2022-09-27T00:26:44;6.00;;;1.80;;
31660;SDS011;18267;52.234;7.444;2022-09-27T00:29:11;2.22;;;1.40;;
31660;SDS011;18267;52.234;7.444;2022-09-27T00:31:37;8.88;;;1.27;;
31660;SDS011;18267;52.234;7.444;2022-09-27T00:34:03;2.92;;;1.40;;
31660;SDS011;18267;52.234;7.444;2022-09-27T00:36:30;8.00;;;1.52;;
31660;SDS011;18267;52.234;7.444;2022-09-27T00:38:57;12.15;;;1.67;;
31660;SDS011;18267;52.234;7.444;2022-09-27T00:41:30;5.95;;;1.10;;
31660;SDS011;18267;52.234;7.444;2022-09-27T00:43:59;6.38;;;1.67;;
31660;SDS011;18267;52.234;7.444;2022-09-27T00:46:30;9.15;;;1.50;;
31660;SDS011;18267;52.234;7.444;2022-09-27T00:49:18;5.43;;;1.25;;
31660;SDS011;18267;52.234;7.444;2022-09-27T00:52:16;10.48;;;1.17;;
31660;SDS011;18267;52.234;7.444;2022-09-27T00:54:39;13.77;;;1.20;;
31660;SDS011;18267;52.234;7.444;2022-09-27T00:57:08;8.77;;;1.30;;
31660;SDS011;18267;52.234;7.444;2022-09-27T00:59:35;5.05;;;1.13;;
31660;SDS011;18267;52.234;7.444;2022-09-27T01:02:05;7.47;;;0.95;;
31660;SDS011;18267;52.234;7.444;2022-09-27T01:04:31;4.22;;;1.00;;
31660;SDS011;18267;52.234;7.444;2022-09-27T01:06:58;6.38;;;1.23;;
31660;SDS011;18267;52.234;7.444;2022-09-27T01:09:24;6.43;;;1.27;;
31660;SDS011;18267;52.234;7.444;2022-09-27T01:12:00;4.75;;;1.00;;
31660;SDS011;18267;52.234;7.444;2022-09-27T01:17:17;8.98;;;1.17;;
31660;SDS011;18267;52.234;7.444;2022-09-27T01:20:06;5.57;;;0.88;;
31660;SDS011;18267;52.234;7.444;2022-09-27T01:31:41;4.15;;;1.00;;
31660;SDS011;18267;52.234;7.444;2022-09-27T01:34:26;11.63;;;0.93;;
31660;SDS011;18267;52.234;7.444;2022-09-27T01:37:24;4.72;;;0.70;;
31660;SDS011;18267;52.234;7.444;2022-09-27T01:40:10;4.70;;;0.70;;
31660;SDS011;18267;52.234;7.444;2022-09-27T01:42:57;4.07;;;0.70;;
31660;SDS011;18267;52.234;7.444;2022-09-27T01:45:38;4.45;;;0.95;;
31660;SDS011;18267;52.234;7.444;2022-09-27T01:48:15;3.30;;;0.73;;
31660;SDS011;18267;52.234;7.444;2022-09-27T01:50:46;2.72;;;0.60;;
31660;SDS011;18267;52.234;7.444;2022-09-27T01:53:31;8.30;;;0.60;;
31660;SDS011;18267;52.234;7.444;2022-09-27T01:56:16;4.35;;;0.70;;
31660;SDS011;18267;52.234;7.444;2022-09-27T01:58:47;4.88;;;0.52;;
31660;SDS011;18267;52.234;7.444;2022-09-27T02:01:21;2.55;;;0.50;;
31660;SDS011;18267;52.234;7.444;2022-09-27T02:03:50;2.83;;;0.60;;
31660;SDS011;18267;52.234;7.444;2022-09-27T02:06:20;4.88;;;0.55;;
31660;SDS011;18267;52.234;7.444;2022-09-27T02:08:58;1.27;;;0.60;;
31660;SDS011;18267;52.234;7.444;2022-09-27T02:13:57;3.80;;;0.70;;
31660;SDS011;18267;52.234;7.444;2022-09-27T02:19:25;4.10;;;0.90;;
31660;SDS011;18267;52.234;7.444;2022-09-27T02:30:31;6.15;;;0.98;;
31660;SDS011;18267;52.234;7.444;2022-09-27T02:32:57;6.03;;;0.95;;
31660;SDS011;18267;52.234;7.444;2022-09-27T02:35:32;5.10;;;0.80;;
31660;SDS011;18267;52.234;7.444;2022-09-27T02:37:59;1.00;;;0.50;;
31660;SDS011;18267;52.234;7.444;2022-09-27T02:40:28;3.65;;;0.73;;
31660;SDS011;18267;52.234;7.444;2022-09-27T02:42:56;2.75;;;0.47;;
31660;SDS011;18267;52.234;7.444;2022-09-27T02:45:23;3.40;;;0.45;;
31660;SDS011;18267;52.234;7.444;2022-09-27T02:50:55;5.25;;;0.57;;
31660;SDS011;18267;52.234;7.444;2022-09-27T02:53:32;4.40;;;0.60;;
31660;SDS011;18267;52.234;7.444;2022-09-27T02:56:32;3.35;;;0.80;;
31660;SDS011;18267;52.234;7.444;2022-09-27T02:59:20;1.83;;;0.52;;
31660;SDS011;18267;52.234;7.444;2022-09-27T03:02:07;1.77;;;0.40;;
31660;SDS011;18267;52.234;7.444;2022-09-27T03:09:55;3.67;;;0.38;;
31660;SDS011;18267;52.234;7.444;2022-09-27T03:12:20;2.40;;;0.43;;
31660;SDS011;18267;52.234;7.444;2022-09-27T03:14:50;4.47;;;0.40;;
31660;SDS011;18267;52.234;7.444;2022-09-27T03:17:17;2.75;;;0.38;;
31660;SDS011;18267;52.234;7.444;2022-09-27T03:19:43;0.85;;;0.30;;
31660;SDS011;18267;52.234;7.444;2022-09-27T03:22:08;2.10;;;0.40;;
31660;SDS011;18267;52.234;7.444;2022-09-27T03:24:34;3.13;;;0.50;;
31660;SDS011;18267;52.234;7.444;2022-09-27T03:26:59;1.80;;;0.40;;
31660;SDS011;18267;52.234;7.444;2022-09-27T03:29:25;4.20;;;0.32;;
31660;SDS011;18267;52.234;7.444;2022-09-27T03:31:50;6.95;;;0.40;;
31660;SDS011;18267;52.234;7.444;2022-09-27T03:34:16;1.38;;;0.20;;
31660;SDS011;18267;52.234;7.444;2022-09-27T03:36:41;4.10;;;0.40;;
31660;SDS011;18267;52.234;7.444;2022-09-27T03:39:07;1.27;;;0.20;;
31660;SDS011;18267;52.234;7.444;2022-09-27T03:41:32;0.57;;;0.20;;
31660;SDS011;18267;52.234;7.444;2022-09-27T03:43:58;5.60;;;0.40;;
31660;SDS011;18267;52.234;7.444;2022-09-27T03:46:24;6.00;;;0.32;;
31660;SDS011;18267;52.234;7.444;2022-09-27T03:48:50;3.20;;;0.30;;
31660;SDS011;18267;52.234;7.444;2022-09-27T03:51:16;2.33;;;0.43;;
31660;SDS011;18267;52.234;7.444;2022-09-27T03:53:42;2.35;;;0.28;;
31660;SDS011;18267;52.234;7.444;2022-09-27T03:56:07;3.05;;;0.45;;
31660;SDS011;18267;52.234;7.444;2022-09-27T03:58:34;0.10;;;0.10;;
31660;SDS011;18267;52.234;7.444;2022-09-27T04:01:00;0.70;;;0.50;;
31660;SDS011;18267;52.234;7.444;2022-09-27T04:03:25;1.20;;;0.40;;
31660;SDS011;18267;52.234;7.444;2022-09-27T04:05:54;1.15;;;0.30;;
31660;SDS011;18267;52.234;7.444;2022-09-27T04:08:20;1.35;;;0.32;;
31660;SDS011;18267;52.234;7.444;2022-09-27T04:10:48;4.13;;;0.40;;
31660;SDS011;18267;52.234;7.444;2022-09-27T04:13:13;1.75;;;0.30;;
31660;SDS011;18267;52.234;7.444;2022-09-27T04:15:39;4.10;;;0.43;;
31660;SDS011;18267;52.234;7.444;2022-09-27T04:18:05;3.95;;;0.55;;
31660;SDS011;18267;52.234;7.444;2022-09-27T04:20:31;2.35;;;0.32;;
31660;SDS011;18267;52.234;7.444;2022-09-27T04:22:56;3.15;;;0.40;;
31660;SDS011;18267;52.234;7.444;2022-09-27T04:25:22;1.77;;;0.38;;
31660;SDS011;18267;52.234;7.444;2022-09-27T04:27:47;6.07;;;0.55;;
31660;SDS011;18267;52.234;7.444;2022-09-27T04:30:16;5.05;;;0.47;;
31660;SDS011;18267;52.234;7.444;2022-09-27T04:32:42;1.55;;;0.40;;
31660;SDS011;18267;52.234;7.444;2022-09-27T04:35:09;2.97;;;0.25;;
31660;SDS011;18267;52.234;7.444;2022-09-27T04:37:56;2.13;;;0.20;;
31660;SDS011;18267;52.234;7.444;2022-09-27T04:40:22;0.77;;;0.30;;
31660;SDS011;18267;52.234;7.444;2022-09-27T04:42:48;2.17;;;0.45;;
31660;SDS011;18267;52.234;7.444;2022-09-27T04:45:26;1.35;;;0.40;;
31660;SDS011;18267;52.234;7.444;2022-09-27T04:47:52;4.22;;;0.40;;
31660;SDS011;18267;52.234;7.444;2022-09-27T04:50:18;0.70;;;0.35;;
31660;SDS011;18267;52.234;7.444;2022-09-27T04:52:48;1.20;;;0.20;;
31660;SDS011;18267;52.234;7.444;2022-09-27T04:55:16;3.03;;;0.30;;
31660;SDS011;18267;52.234;7.444;2022-09-27T04:57:42;1.23;;;0.30;;
31660;SDS011;18267;52.234;7.444;2022-09-27T05:00:07;2.90;;;0.50;;
31660;SDS011;18267;52.234;7.444;2022-09-27T05:02:34;5.20;;;0.75;;
31660;SDS011;18267;52.234;7.444;2022-09-27T05:04:59;2.00;;;0.57;;
31660;SDS011;18267;52.234;7.444;2022-09-27T05:07:25;6.40;;;0.68;;
31660;SDS011;18267;52.234;7.444;2022-09-27T05:09:52;1.40;;;0.30;;
31660;SDS011;18267;52.234;7.444;2022-09-27T05:12:18;3.92;;;0.28;;
31660;SDS011;18267;52.234;7.444;2022-09-27T05:14:44;5.07;;;0.43;;
31660;SDS011;18267;52.234;7.444;2022-09-27T05:17:09;3.47;;;0.38;;
31660;SDS011;18267;52.234;7.444;2022-09-27T05:19:35;4.85;;;0.40;;
31660;SDS011;18267;52.234;7.444;2022-09-27T05:22:03;1.77;;;0.47;;
31660;SDS011;18267;52.234;7.444;2022-09-27T05:24:32;5.18;;;0.30;;
31660;SDS011;18267;52.234;7.444;2022-09-27T05:26:58;1.83;;;0.47;;
31660;SDS011;18267;52.234;7.444;2022-09-27T05:29:24;1.27;;;0.20;;
31660;SDS011;18267;52.234;7.444;2022-09-27T05:31:50;0.65;;;0.47;;
31660;SDS011;18267;52.234;7.444;2022-09-27T05:34:15;2.03;;;0.60;;
31660;SDS011;18267;52.234;7.444;2022-09-27T05:36:42;0.85;;;0.50;;
31660;SDS011;18267;52.234;7.444;2022-09-27T05:39:07;7.70;;;0.50;;
31660;SDS011;18267;52.234;7.444;2022-09-27T05:41:33;2.67;;;0.60;;
31660;SDS011;18267;52.234;7.444;2022-09-27T05:43:59;2.45;;;0.65;;
31660;SDS011;18267;52.234;7.444;2022-09-27T05:46:25;3.92;;;0.85;;
31660;SDS011;18267;52.234;7.444;2022-09-27T05:48:50;3.65;;;0.80;;
31660;SDS011;18267;52.234;7.444;2022-09-27T05:51:16;6.43;;;0.77;;
31660;SDS011;18267;52.234;7.444;2022-09-27T05:53:43;5.72;;;0.77;;
31660;SDS011;18267;52.234;7.444;2022-09-27T05:56:08;2.80;;;1.23;;
31660;SDS011;18267;52.234;7.444;2022-09-27T05:58:34;2.17;;;0.60;;
31660;SDS011;18267;52.234;7.444;2022-09-27T06:00:59;6.65;;;0.75;;
31660;SDS011;18267;52.234;7.444;2022-09-27T06:03:25;6.07;;;0.60;;
31660;SDS011;18267;52.234;7.444;2022-09-27T06:05:51;2.80;;;0.73;;
31660;SDS011;18267;52.234;7.444;2022-09-27T06:08:16;2.70;;;0.43;;
31660;SDS011;18267;52.234;7.444;2022-09-27T06:10:44;7.05;;;0.80;;
31660;SDS011;18267;52.234;7.444;2022-09-27T06:13:11;4.75;;;0.50;;
31660;SDS011;18267;52.234;7.444;2022-09-27T06:15:40;7.80;;;0.70;;
31660;SDS011;18267;52.234;7.444;2022-09-27T06:18:08;8.77;;;0.55;;
31660;SDS011;18267;52.234;7.444;2022-09-27T06:20:36;2.47;;;0.70;;
31660;SDS011;18267;52.234;7.444;2022-09-27T06:23:13;2.88;;;0.63;;
31660;SDS011;18267;52.234;7.444;2022-09-27T06:25:40;2.85;;;0.50;;
31660;SDS011;18267;52.234;7.444;2022-09-27T06:28:06;8.00;;;0.63;;
31660;SDS011;18267;52.234;7.444;2022-09-27T06:30:36;1.33;;;0.50;;
31660;SDS011;18267;52.234;7.444;2022-09-27T06:33:03;0.90;;;0.40;;
31660;SDS011;18267;52.234;7.444;2022-09-27T06:35:29;0.90;;;0.50;;
31660;SDS011;18267;52.234;7.444;2022-09-27T06:37:55;4.03;;;0.32;;
31660;SDS011;18267;52.234;7.444;2022-09-27T06:40:21;1.95;;;0.40;;
31660;SDS011;18267;52.234;7.444;2022-09-27T06:42:51;1.77;;;0.50;;
31660;SDS011;18267;52.234;7.444;2022-09-27T06:45:17;7.53;;;0.73;;
31660;SDS011;18267;52.234;7.444;2022-09-27T06:47:42;1.60;;;0.40;;
31660;SDS011;18267;52.234;7.444;2022-09-27T06:50:09;6.55;;;0.35;;
31660;SDS011;18267;52.234;7.444;2022-09-27T06:52:36;9.60;;;0.98;;
31660;SDS011;18267;52.234;7.444;2022-09-27T06:55:02;1.98;;;0.50;;
31660;SDS011;18267;52.234;7.444;2022-09-27T06:57:29;5.18;;;0.60;;
31660;SDS011;18267;52.234;7.444;2022-09-27T07:00:14;2.47;;;0.50;;
31660;SDS011;18267;52.234;7.444;2022-09-27T07:02:50;1.73;;;0.40;;
31660;SDS011;18267;52.234;7.444;2022-09-27T07:05:16;3.25;;;0.45;;
31660;SDS011;18267;52.234;7.444;2022-09-27T07:07:42;7.90;;;1.10;;
31660;SDS011;18267;52.234;7.444;2022-09-27T07:10:09;3.80;;;0.80;;
31660;SDS011;18267;52.234;7.444;2022-09-27T07:12:35;2.85;;;0.60;;
31660;SDS011;18267;52.234;7.444;2022-09-27T07:15:01;5.82;;;0.57;;
31660;SDS011;18267;52.234;7.444;2022-09-27T07:17:27;5.78;;;0.43;;
31660;SDS011;18267;52.234;7.444;2022-09-27T07:19:53;2.58;;;0.50;;
31660;SDS011;18267;52.234;7.444;2022-09-27T07:22:19;7.05;;;0.57;;
31660;SDS011;18267;52.234;7.444;2022-09-27T07:24:45;0.98;;;0.30;;
31660;SDS011;18267;52.234;7.444;2022-09-27T07:27:11;3.03;;;0.60;;
31660;SDS011;18267;52.234;7.444;2022-09-27T07:29:36;3.67;;;0.77;;
31660;SDS011;18267;52.234;7.444;2022-09-27T07:32:02;4.93;;;0.43;;
31660;SDS011;18267;52.234;7.444;2022-09-27T07:34:28;4.22;;;0.60;;
31660;SDS011;18267;52.234;7.444;2022-09-27T07:36:58;4.10;;;0.65;;
31660;SDS011;18267;52.234;7.444;2022-09-27T07:39:24;1.08;;;0.40;;
31660;SDS011;18267;52.234;7.444;2022-09-27T07:41:50;3.00;;;0.55;;
31660;SDS011;18267;52.234;7.444;2022-09-27T07:44:16;2.28;;;0.43;;
31660;SDS011;18267;52.234;7.444;2022-09-27T07:46:42;5.07;;;0.70;;
31660;SDS011;18267;52.234;7.444;2022-09-27T07:49:07;7.43;;;0.55;;
31660;SDS011;18267;52.234;7.444;2022-09-27T07:51:33;5.13;;;0.85;;
31660;SDS011;18267;52.234;7.444;2022-09-27T07:53:58;6.03;;;0.90;;
31660;SDS011;18267;52.234;7.444;2022-09-27T07:56:27;5.25;;;0.90;;
31660;SDS011;18267;52.234;7.444;2022-09-27T07:58:53;4.32;;;0.73;;
31660;SDS011;18267;52.234;7.444;2022-09-27T08:01:18;6.70;;;0.60;;
31660;SDS011;18267;52.234;7.444;2022-09-27T08:03:44;5.15;;;0.60;;
31660;SDS011;18267;52.234;7.444;2022-09-27T08:06:10;2.15;;;0.60;;
31660;SDS011;18267;52.234;7.444;2022-09-27T08:08:36;4.95;;;0.63;;
31660;SDS011;18267;52.234;7.444;2022-09-27T08:11:11;3.05;;;0.50;;
31660;SDS011;18267;52.234;7.444;2022-09-27T08:13:42;4.35;;;0.70;;
31660;SDS011;18267;52.234;7.444;2022-09-27T08:16:08;0.63;;;0.32;;
31660;SDS011;18267;52.234;7.444;2022-09-27T08:18:35;4.47;;;0.50;;
31660;SDS011;18267;52.234;7.444;2022-09-27T08:21:01;2.95;;;0.52;;
31660;SDS011;18267;52.234;7.444;2022-09-27T08:23:27;4.97;;;0.60;;
31660;SDS011;18267;52.234;7.444;2022-09-27T08:25:53;4.47;;;0.45;;
31660;SDS011;18267;52.234;7.444;2022-09-27T08:28:19;1.40;;;0.50;;
31660;SDS011;18267;52.234;7.444;2022-09-27T08:30:46;2.10;;;0.55;;
31660;SDS011;18267;52.234;7.444;2022-09-27T08:33:13;7.82;;;0.80;;
31660;SDS011;18267;52.234;7.444;2022-09-27T08:35:38;3.58;;;0.60;;
31660;SDS011;18267;52.234;7.444;2022-09-27T08:38:04;5.97;;;0.63;;
31660;SDS011;18267;52.234;7.444;2022-09-27T08:40:45;5.47;;;0.75;;
31660;SDS011;18267;52.234;7.444;2022-09-27T08:43:38;2.42;;;0.40;;
31660;SDS011;18267;52.234;7.444;2022-09-27T08:46:26;2.17;;;0.77;;
31660;SDS011;18267;52.234;7.444;2022-09-27T08:49:04;6.63;;;1.20;;
31660;SDS011;18267;52.234;7.444;2022-09-27T08:51:36;3.22;;;0.70;;
31660;SDS011;18267;52.234;7.444;2022-09-27T08:54:05;5.35;;;0.63;;
31660;SDS011;18267;52.234;7.444;2022-09-27T08:56:39;3.83;;;0.73;;
31660;SDS011;18267;52.234;7.444;2022-09-27T08:59:15;2.92;;;0.55;;
31660;SDS011;18267;52.234;7.444;2022-09-27T09:01:49;7.40;;;0.60;;
31660;SDS011;18267;52.234;7.444;2022-09-27T09:04:21;2.60;;;0.50;;
31660;SDS011;18267;52.234;7.444;2022-09-27T09:12:36;4.30;;;0.75;;
31660;SDS011;18267;52.234;7.444;2022-09-27T09:29:54;2.47;;;0.50;;
31660;SDS011;18267;52.234;7.444;2022-09-27T09:32:44;3.53;;;0.35;;
31660;SDS011;18267;52.234;7.444;2022-09-27T09:35:43;1.63;;;0.43;;
31660;SDS011;18267;52.234;7.444;2022-09-27T09:38:12;1.85;;;0.38;;
31660;SDS011;18267;52.234;7.444;2022-09-27T09:41:01;1.65;;;0.30;;
31660;SDS011;18267;52.234;7.444;2022-09-27T09:44:00;3.50;;;0.55;;
31660;SDS011;18267;52.234;7.444;2022-09-27T09:46:42;2.70;;;0.32;;
31660;SDS011;18267;52.234;7.444;2022-09-27T09:51:50;1.35;;;0.30;;
31660;SDS011;18267;52.234;7.444;2022-09-27T09:54:39;4.30;;;0.50;;
31660;SDS011;18267;52.234;7.444;2022-09-27T09:59:48;0.68;;;0.40;;
31660;SDS011;18267;52.234;7.444;2022-09-27T10:04:56;3.53;;;0.68;;
31660;SDS011;18267;52.234;7.444;2022-09-27T10:07:22;4.22;;;0.30;;
31660;SDS011;18267;52.234;7.444;2022-09-27T10:09:49;10.63;;;0.60;;
31660;SDS011;18267;52.234;7.444;2022-09-27T10:12:18;0.43;;;0.20;;
31660;SDS011;18267;52.234;7.444;2022-09-27T10:14:45;0.52;;;0.15;;
31660;SDS011;18267;52.234;7.444;2022-09-27T10:17:14;3.22;;;0.35;;
31660;SDS011;18267;52.234;7.444;2022-09-27T10:19:47;1.27;;;0.30;;
31660;SDS011;18267;52.234;7.444;2022-09-27T10:22:27;1.90;;;0.40;;
31660;SDS011;18267;52.234;7.444;2022-09-27T10:25:02;1.02;;;0.50;;
31660;SDS011;18267;52.234;7.444;2022-09-27T10:30:26;1.52;;;0.20;;
31660;SDS011;18267;52.234;7.444;2022-09-27T10:32:51;7.18;;;0.47;;
31660;SDS011;18267;52.234;7.444;2022-09-27T10:35:34;2.25;;;0.20;;
31660;SDS011;18267;52.234;7.444;2022-09-27T10:38:16;0.75;;;0.30;;
31660;SDS011;18267;52.234;7.444;2022-09-27T10:40:55;1.55;;;0.40;;
31660;SDS011;18267;52.234;7.444;2022-09-27T10:43:31;0.45;;;0.22;;
31660;SDS011;18267;52.234;7.444;2022-09-27T10:49:21;1.05;;;0.20;;
31660;SDS011;18267;52.234;7.444;2022-09-27T10:51:54;1.35;;;0.30;;
31660;SDS011;18267;52.234;7.444;2022-09-27T10:54:34;0.75;;;0.10;;
31660;SDS011;18267;52.234;7.444;2022-09-27T10:57:24;1.20;;;0.20;;
31660;SDS011;18267;52.234;7.444;2022-09-27T10:59:54;1.10;;;0.22;;
31660;SDS011;18267;52.234;7.444;2022-09-27T11:02:56;0.45;;;0.10;;
31660;SDS011;18267;52.234;7.444;2022-09-27T11:07:50;1.58;;;0.40;;
31660;SDS011;18267;52.234;7.444;2022-09-27T11:10:25;1.02;;;0.30;;
31660;SDS011;18267;52.234;7.444;2022-09-27T11:13:04;0.43;;;0.20;;
31660;SDS011;18267;52.234;7.444;2022-09-27T11:21:46;1.67;;;0.15;;
31660;SDS011;18267;52.234;7.444;2022-09-27T11:27:08;1.48;;;0.32;;
31660;SDS011;18267;52.234;7.444;2022-09-27T11:51:32;0.43;;;0.10;;
31660;SDS011;18267;52.234;7.444;2022-09-27T11:56:59;0.35;;;0.10;;
31660;SDS011;18267;52.234;7.444;2022-09-27T11:59:30;1.08;;;0.10;;
31660;SDS011;18267;52.234;7.444;2022-09-27T12:05:35;0.10;;;0.10;;
31660;SDS011;18267;52.234;7.444;2022-09-27T12:14:19;0.35;;;0.10;;
31660;SDS011;18267;52.234;7.444;2022-09-27T12:16:51;0.52;;;0.20;;
31660;SDS011;18267;52.234;7.444;2022-09-27T12:19:21;0.30;;;0.20;;
31660;SDS011;18267;52.234;7.444;2022-09-27T12:21:56;3.03;;;0.30;;
31660;SDS011;18267;52.234;7.444;2022-09-27T12:24:25;0.50;;;0.20;;
31660;SDS011;18267;52.234;7.444;2022-09-27T12:26:55;4.03;;;0.30;;
31660;SDS011;18267;52.234;7.444;2022-09-27T12:32:32;2.95;;;0.40;;
31660;SDS011;18267;52.234;7.444;2022-09-27T12:37:23;2.30;;;0.55;;
31660;SDS011;18267;52.234;7.444;2022-09-27T12:42:34;2.50;;;0.55;;
31660;SDS011;18267;52.234;7.444;2022-09-27T12:45:05;0.70;;;0.32;;
31660;SDS011;18267;52.234;7.444;2022-09-27T12:50:34;0.90;;;0.60;;
31660;SDS011;18267;52.234;7.444;2022-09-27T12:53:11;1.17;;;0.50;;
31660;SDS011;18267;52.234;7.444;2022-09-27T12:56:12;1.27;;;0.32;;
31660;SDS011;18267;52.234;7.444;2022-09-27T12:59:26;0.45;;;0.40;;
31660;SDS011;18267;52.234;7.444;2022-09-27T13:10:23;1.10;;;0.47;;
31660;SDS011;18267;52.234;7.444;2022-09-27T13:12:53;1.40;;;0.40;;
31660;SDS011;18267;52.234;7.444;2022-09-27T13:15:33;0.73;;;0.30;;
31660;SDS011;18267;52.234;7.444;2022-09-27T13:18:01;1.30;;;0.50;;
31660;SDS011;18267;52.234;7.444;2022-09-27T13:23:03;1.45;;;0.30;;
31660;SDS011;18267;52.234;7.444;2022-09-27T13:30:52;1.13;;;0.35;;
31660;SDS011;18267;52.234;7.444;2022-09-27T13:41:37;0.30;;;0.20;;
31660;SDS011;18267;52.234;7.444;2022-09-27T13:44:37;1.48;;;0.60;;
31660;SDS011;18267;52.234;7.444;2022-09-27T13:47:36;3.85;;;0.40;;
31660;SDS011;18267;52.234;7.444;2022-09-27T13:50:13;0.80;;;0.30;;
31660;SDS011;18267;52.234;7.444;2022-09-27T13:52:42;2.63;;;0.60;;
31660;SDS011;18267;52.234;7.444;2022-09-27T13:55:36;0.80;;;0.30;;
31660;SDS011;18267;52.234;7.444;2022-09-27T13:58:04;0.60;;;0.25;;
31660;SDS011;18267;52.234;7.444;2022-09-27T14:00:43;1.95;;;0.40;;
31660;SDS011;18267;52.234;7.444;2022-09-27T14:03:32;0.60;;;0.30;;
31660;SDS011;18267;52.234;7.444;2022-09-27T14:06:02;0.55;;;0.40;;
31660;SDS011;18267;52.234;7.444;2022-09-27T14:11:14;1.92;;;0.50;;
31660;SDS011;18267;52.234;7.444;2022-09-27T14:13:47;1.17;;;0.50;;
31660;SDS011;18267;52.234;7.444;2022-09-27T14:16:14;0.73;;;0.47;;
31660;SDS011;18267;52.234;7.444;2022-09-27T14:18:42;1.50;;;0.32;;
31660;SDS011;18267;52.234;7.444;2022-09-27T14:21:32;0.98;;;0.40;;
31660;SDS011;18267;52.234;7.444;2022-09-27T14:27:05;0.32;;;0.17;;
31660;SDS011;18267;52.234;7.444;2022-09-27T14:32:21;0.55;;;0.20;;
31660;SDS011;18267;52.234;7.444;2022-09-27T14:38:00;0.77;;;0.20;;
31660;SDS011;18267;52.234;7.444;2022-09-27T14:40:28;1.65;;;0.30;;
31660;SDS011;18267;52.234;7.444;2022-09-27T14:42:57;0.40;;;0.20;;
31660;SDS011;18267;52.234;7.444;2022-09-27T14:47:58;0.00;;;0.00;;
31660;SDS011;18267;52.234;7.444;2022-09-27T14:50:25;0.77;;;0.20;;
31660;SDS011;18267;52.234;7.444;2022-09-27T14:52:54;0.82;;;0.10;;
31660;SDS011;18267;52.234;7.444;2022-09-27T14:55:27;3.30;;;0.22;;
31660;SDS011;18267;52.234;7.444;2022-09-27T14:57:59;4.82;;;0.10;;
31660;SDS011;18267;52.234;7.444;2022-09-27T15:00:30;0.70;;;0.15;;
31660;SDS011;18267;52.234;7.444;2022-09-27T15:03:00;0.88;;;0.30;;
31660;SDS011;18267;52.234;7.444;2022-09-27T15:05:30;1.05;;;0.20;;
31660;SDS011;18267;52.234;7.444;2022-09-27T15:07:57;3.70;;;0.30;;
31660;SDS011;18267;52.234;7.444;2022-09-27T15:10:29;2.97;;;0.20;;
31660;SDS011;18267;52.234;7.444;2022-09-27T15:12:59;0.40;;;0.20;;
31660;SDS011;18267;52.234;7.444;2022-09-27T15:15:30;1.85;;;0.30;;
31660;SDS011;18267;52.234;7.444;2022-09-27T15:18:01;3.97;;;0.45;;
31660;SDS011;18267;52.234;7.444;2022-09-27T15:22:56;0.88;;;0.20;;
31660;SDS011;18267;52.234;7.444;2022-09-27T15:25:24;1.30;;;0.30;;
31660;SDS011;18267;52.234;7.444;2022-09-27T15:28:12;0.68;;;0.30;;
31660;SDS011;18267;52.234;7.444;2022-09-27T15:30:45;0.85;;;0.20;;
31660;SDS011;18267;52.234;7.444;2022-09-27T15:33:17;1.92;;;0.30;;
31660;SDS011;18267;52.234;7.444;2022-09-27T15:35:49;0.60;;;0.28;;
31660;SDS011;18267;52.234;7.444;2022-09-27T15:38:29;0.75;;;0.20;;
31660;SDS011;18267;52.234;7.444;2022-09-27T15:43:39;0.40;;;0.20;;
31660;SDS011;18267;52.234;7.444;2022-09-27T15:46:23;0.52;;;0.20;;
31660;SDS011;18267;52.234;7.444;2022-09-27T15:51:41;2.00;;;0.40;;
31660;SDS011;18267;52.234;7.444;2022-09-27T15:54:08;4.38;;;0.32;;
31660;SDS011;18267;52.234;7.444;2022-09-27T15:56:33;4.60;;;0.25;;
31660;SDS011;18267;52.234;7.444;2022-09-27T15:59:00;2.00;;;0.32;;
31660;SDS011;18267;52.234;7.444;2022-09-27T16:01:26;2.83;;;0.30;;
31660;SDS011;18267;52.234;7.444;2022-09-27T16:03:52;2.15;;;0.13;;
31660;SDS011;18267;52.234;7.444;2022-09-27T16:06:17;4.18;;;0.30;;
31660;SDS011;18267;52.234;7.444;2022-09-27T16:08:44;2.25;;;0.22;;
31660;SDS011;18267;52.234;7.444;2022-09-27T16:11:13;1.45;;;0.10;;
31660;SDS011;18267;52.234;7.444;2022-09-27T16:13:41;1.65;;;0.20;;
31660;SDS011;18267;52.234;7.444;2022-09-27T16:16:10;0.77;;;0.10;;
31660;SDS011;18267;52.234;7.444;2022-09-27T16:18:38;0.60;;;0.17;;
31660;SDS011;18267;52.234;7.444;2022-09-27T16:21:06;2.45;;;0.20;;
31660;SDS011;18267;52.234;7.444;2022-09-27T16:23:32;2.58;;;0.10;;
31660;SDS011;18267;52.234;7.444;2022-09-27T16:25:58;1.60;;;0.30;;
31660;SDS011;18267;52.234;7.444;2022-09-27T16:28:23;0.68;;;0.30;;
31660;SDS011;18267;52.234;7.444;2022-09-27T16:30:49;1.58;;;0.10;;
31660;SDS011;18267;52.234;7.444;2022-09-27T16:33:14;3.47;;;0.30;;
31660;SDS011;18267;52.234;7.444;2022-09-27T16:35:40;2.97;;;0.10;;
31660;SDS011;18267;52.234;7.444;2022-09-27T16:38:06;1.02;;;0.20;;
31660;SDS011;18267;52.234;7.444;2022-09-27T16:40:32;0.32;;;0.20;;
31660;SDS011;18267;52.234;7.444;2022-09-27T16:42:57;3.30;;;0.20;;
31660;SDS011;18267;52.234;7.444;2022-09-27T16:45:23;0.77;;;0.20;;
31660;SDS011;18267;52.234;7.444;2022-09-27T16:47:57;3.30;;;0.20;;
31660;SDS011;18267;52.234;7.444;2022-09-27T16:50:23;3.47;;;0.30;;
31660;SDS011;18267;52.234;7.444;2022-09-27T16:53:08;3.88;;;0.20;;
31660;SDS011;18267;52.234;7.444;2022-09-27T16:55:34;1.85;;;0.30;;
31660;SDS011;18267;52.234;7.444;2022-09-27T16:58:00;2.40;;;0.35;;
31660;SDS011;18267;52.234;7.444;2022-09-27T17:00:27;2.85;;;0.30;;
31660;SDS011;18267;52.234;7.444;2022-09-27T17:05:26;1.52;;;0.32;;
31660;SDS011;18267;52.234;7.444;2022-09-27T17:07:52;1.45;;;0.63;;
31660;SDS011;18267;52.234;7.444;2022-09-27T17:10:18;2.90;;;0.35;;
31660;SDS011;18267;52.234;7.444;2022-09-27T17:12:45;0.93;;;0.22;;
31660;SDS011;18267;52.234;7.444;2022-09-27T17:15:16;0.30;;;0.13;;
31660;SDS011;18267;52.234;7.444;2022-09-27T17:17:42;2.58;;;0.47;;
31660;SDS011;18267;52.234;7.444;2022-09-27T17:20:12;1.73;;;0.55;;
31660;SDS011;18267;52.234;7.444;2022-09-27T17:22:38;1.80;;;0.30;;
31660;SDS011;18267;52.234;7.444;2022-09-27T17:25:14;3.58;;;0.60;;
31660;SDS011;18267;52.234;7.444;2022-09-27T17:27:39;5.72;;;0.30;;
31660;SDS011;18267;52.234;7.444;2022-09-27T17:30:05;0.60;;;0.25;;
31660;SDS011;18267;52.234;7.444;2022-09-27T17:32:31;4.03;;;0.30;;
31660;SDS011;18267;52.234;7.444;2022-09-27T17:34:58;2.70;;;0.20;;
31660;SDS011;18267;52.234;7.444;2022-09-27T17:37:24;4.40;;;0.20;;
31660;SDS011;18267;52.234;7.444;2022-09-27T17:39:49;1.58;;;0.20;;
31660;SDS011;18267;52.234;7.444;2022-09-27T17:42:15;4.13;;;0.32;;
31660;SDS011;18267;52.234;7.444;2022-09-27T17:44:42;1.55;;;0.20;;
31660;SDS011;18267;52.234;7.444;2022-09-27T17:47:11;2.70;;;0.30;;
31660;SDS011;18267;52.234;7.444;2022-09-27T17:49:58;3.17;;;0.93;;
31660;SDS011;18267;52.234;7.444;2022-09-27T17:52:42;6.22;;;0.50;;
31660;SDS011;18267;52.234;7.444;2022-09-27T17:55:08;1.67;;;0.30;;
31660;SDS011;18267;52.234;7.444;2022-09-27T17:57:34;3.28;;;0.40;;
31660;SDS011;18267;52.234;7.444;2022-09-27T18:00:00;2.10;;;0.40;;
31660;SDS011;18267;52.234;7.444;2022-09-27T18:02:25;1.10;;;0.50;;
31660;SDS011;18267;52.234;7.444;2022-09-27T18:04:51;1.25;;;0.55;;